createdAt,value
2018-11-03T00:00:52.967Z,20.53
2018-11-03T00:03:33.590Z,20.43
2018-11-03T00:06:02.101Z,19.17
2018-11-03T00:08:30.659Z,20.07
2018-11-03T00:10:59.229Z,19.00
2018-11-03T00:13:27.758Z,20.17
2018-11-03T00:15:56.250Z,18.63
2018-11-03T00:18:24.781Z,20.27
2018-11-03T00:20:53.270Z,19.83
2018-11-03T00:23:21.845Z,19.83
2018-11-03T00:25:50.320Z,19.27
2018-11-03T00:28:18.833Z,20.50
2018-11-03T00:30:47.365Z,20.03
2018-11-03T00:33:15.876Z,19.60
2018-11-03T00:35:44.372Z,18.30
2018-11-03T00:38:15.654Z,18.70
2018-11-03T00:40:44.770Z,17.50
2018-11-03T00:43:15.849Z,17.07
2018-11-03T00:45:47.583Z,17.03
2018-11-03T00:48:16.059Z,16.20
2018-11-03T00:50:44.581Z,15.83
2018-11-03T00:53:13.065Z,16.00
2018-11-03T00:55:41.569Z,15.83
2018-11-03T00:58:16.086Z,14.80
2018-11-03T01:00:44.925Z,15.23
2018-11-03T01:03:13.383Z,15.17
2018-11-03T01:05:41.895Z,15.10
2018-11-03T01:08:10.445Z,15.20
2018-11-03T01:10:38.967Z,15.73
2018-11-03T01:13:07.460Z,15.17
2018-11-03T01:15:35.982Z,16.73
2018-11-03T01:18:04.474Z,16.27
2018-11-03T01:20:32.957Z,15.10
2018-11-03T01:23:04.688Z,15.30
2018-11-03T01:25:35.605Z,15.17
2018-11-03T01:28:04.276Z,16.60
2018-11-03T01:30:32.782Z,15.47
2018-11-03T01:33:01.382Z,15.63
2018-11-03T01:35:29.813Z,15.57
2018-11-03T01:37:58.297Z,15.30
2018-11-03T01:40:26.786Z,15.17
2018-11-03T01:42:55.270Z,15.50
2018-11-03T01:45:23.809Z,14.53
2018-11-03T01:47:52.311Z,14.87
2018-11-03T01:50:20.867Z,15.80
2018-11-03T01:52:49.391Z,16.00
2018-11-03T01:55:18.463Z,16.37
2018-11-03T01:57:46.994Z,16.77
2018-11-03T02:00:18.541Z,16.70
2018-11-03T02:02:50.707Z,16.70
2018-11-03T02:05:19.359Z,16.20
2018-11-03T02:11:13.688Z,16.57
2018-11-03T02:14:15.920Z,15.33
2018-11-03T02:17:00.891Z,13.60
2018-11-03T02:19:30.662Z,13.57
2018-11-03T02:21:59.145Z,13.63
2018-11-03T02:24:28.007Z,15.20
2018-11-03T02:26:56.941Z,16.53
2018-11-03T02:29:31.348Z,15.87
2018-11-03T02:31:59.995Z,16.30
2018-11-03T02:34:28.531Z,16.20
2018-11-03T02:36:57.040Z,16.30
2018-11-03T02:39:28.626Z,16.63
2018-11-03T02:42:01.848Z,15.67
2018-11-03T02:44:33.761Z,15.47
2018-11-03T02:47:05.357Z,16.00
2018-11-03T02:49:39.891Z,17.20
2018-11-03T02:52:12.626Z,16.97
2018-11-03T02:54:41.269Z,16.23
2018-11-03T02:57:09.748Z,16.27
2018-11-03T02:59:38.288Z,15.17
2018-11-03T03:02:06.820Z,14.77
2018-11-03T03:04:38.938Z,14.57
2018-11-03T03:07:10.733Z,14.37
2018-11-03T03:09:42.334Z,13.73
2018-11-03T03:12:17.294Z,13.13
2018-11-03T03:14:50.823Z,12.03
2018-11-03T03:17:23.813Z,12.40
2018-11-03T03:19:56.287Z,13.07
2018-11-03T03:22:28.329Z,13.00
2018-11-03T03:24:59.839Z,13.80
2018-11-03T03:30:05.182Z,13.00
2018-11-03T03:32:33.653Z,12.67
2018-11-03T03:35:02.157Z,12.37
2018-11-03T03:37:33.899Z,11.80
2018-11-03T03:40:02.678Z,11.87
2018-11-03T03:42:31.191Z,11.53
2018-11-03T03:44:59.744Z,11.53
2018-11-03T03:47:28.204Z,11.03
2018-11-03T03:49:56.762Z,11.60
2018-11-03T03:52:25.286Z,11.33
2018-11-03T03:54:53.822Z,11.83
2018-11-03T03:57:22.325Z,11.90
2018-11-03T03:59:50.842Z,11.77
2018-11-03T04:02:19.358Z,11.23
2018-11-03T04:04:47.826Z,12.20
2018-11-03T04:07:16.314Z,12.40
2018-11-03T04:09:44.822Z,13.17
2018-11-03T04:12:13.342Z,13.40
2018-11-03T04:14:41.820Z,12.60
2018-11-03T04:20:41.443Z,14.57
2018-11-03T04:23:10.239Z,15.60
2018-11-03T04:25:44.048Z,15.50
2018-11-03T04:28:14.699Z,16.03
2018-11-03T04:30:44.404Z,16.33
2018-11-03T04:33:16.470Z,17.97
2018-11-03T04:39:30.026Z,17.30
2018-11-03T04:42:29.348Z,17.00
2018-11-03T04:44:59.352Z,16.47
2018-11-03T04:47:38.893Z,16.87
2018-11-03T04:50:13.907Z,16.40
2018-11-03T04:52:42.408Z,15.43
2018-11-03T04:55:11.100Z,15.70
2018-11-03T04:57:39.489Z,16.23
2018-11-03T05:00:11.772Z,15.60
2018-11-03T05:02:42.358Z,15.20
2018-11-03T05:05:13.907Z,15.57
2018-11-03T05:07:45.371Z,15.70
2018-11-03T05:10:15.805Z,15.10
2018-11-03T05:12:47.743Z,14.97
2018-11-03T05:15:18.692Z,15.10
2018-11-03T05:17:50.367Z,16.20
2018-11-03T05:20:23.195Z,16.43
2018-11-03T05:22:51.668Z,15.47
2018-11-03T05:25:27.635Z,15.67
2018-11-03T05:27:56.552Z,16.13
2018-11-03T05:30:28.773Z,17.03
2018-11-03T05:32:57.508Z,18.93
2018-11-03T05:35:26.018Z,19.87
2018-11-03T05:37:54.575Z,19.40
2018-11-03T05:40:23.078Z,20.97
2018-11-03T05:42:51.561Z,21.60
2018-11-03T05:45:20.072Z,21.07
2018-11-03T05:47:48.565Z,21.17
2018-11-03T05:50:17.074Z,21.07
2018-11-03T05:52:45.547Z,22.23
2018-11-03T05:55:14.035Z,25.73
2018-11-03T05:57:42.485Z,28.20
2018-11-03T06:00:11.079Z,28.90
2018-11-03T06:02:39.581Z,28.67
2018-11-03T06:05:08.077Z,26.23
2018-11-03T06:07:36.569Z,24.67
2018-11-03T06:10:06.053Z,22.30
2018-11-03T06:12:34.554Z,21.77
2018-11-03T06:15:03.030Z,20.47
2018-11-03T06:17:31.568Z,19.97
2018-11-03T06:20:00.107Z,20.97
2018-11-03T06:22:28.654Z,19.47
2018-11-03T06:24:57.170Z,18.77
2018-11-03T06:27:25.688Z,18.03
2018-11-03T06:29:54.200Z,18.93
2018-11-03T06:32:22.711Z,18.47
2018-11-03T06:34:51.190Z,18.67
2018-11-03T06:37:19.770Z,18.17
2018-11-03T06:39:48.283Z,18.93
2018-11-03T06:42:16.795Z,18.83
2018-11-03T06:44:45.262Z,19.67
2018-11-03T06:47:13.833Z,19.73
2018-11-03T06:49:42.295Z,21.47
2018-11-03T06:52:10.880Z,21.07
2018-11-03T06:54:39.371Z,21.57
2018-11-03T06:57:07.903Z,21.03
2018-11-03T06:59:36.393Z,21.83
2018-11-03T07:02:04.976Z,21.00
2018-11-03T07:04:33.472Z,20.77
2018-11-03T07:07:01.990Z,21.27
2018-11-03T07:09:38.597Z,20.30
2018-11-03T07:12:07.242Z,21.10
2018-11-03T07:14:35.737Z,20.93
2018-11-03T07:17:04.250Z,19.90
2018-11-03T07:19:32.772Z,20.20
2018-11-03T07:22:03.661Z,20.13
2018-11-03T07:24:32.298Z,21.70
2018-11-03T07:27:00.823Z,20.23
2018-11-03T07:29:29.436Z,19.73
2018-11-03T07:31:57.913Z,19.20
2018-11-03T07:34:28.826Z,20.40
2018-11-03T07:36:57.535Z,20.40
2018-11-03T07:39:26.082Z,20.20
2018-11-03T07:41:54.629Z,19.67
2018-11-03T07:44:23.153Z,20.30
2018-11-03T07:46:51.665Z,29.07
2018-11-03T07:49:20.219Z,32.50
2018-11-03T07:51:52.490Z,40.03
2018-11-03T07:54:23.870Z,123.37
2018-11-03T07:56:56.001Z,51.73
2018-11-03T07:59:29.024Z,93.23
2018-11-03T08:02:00.447Z,36.37
2018-11-03T08:04:41.571Z,27.03
2018-11-03T08:07:10.488Z,18.97
2018-11-03T08:09:38.949Z,19.37
2018-11-03T08:12:07.471Z,19.17
2018-11-03T08:14:35.935Z,24.60
2018-11-03T08:17:15.851Z,24.53
2018-11-03T08:19:44.662Z,17.77
2018-11-03T08:22:13.197Z,18.80
2018-11-03T08:24:41.674Z,17.20
2018-11-03T08:27:10.243Z,20.33
2018-11-03T08:29:40.551Z,19.13
2018-11-03T08:32:09.148Z,19.17
2018-11-03T08:34:38.230Z,17.80
2018-11-03T08:37:08.760Z,21.33
2018-11-03T08:39:42.421Z,19.07
2018-11-03T08:42:10.907Z,17.70
2018-11-03T08:44:43.235Z,18.47
2018-11-03T08:47:15.486Z,17.90
2018-11-03T08:49:44.241Z,17.10
2018-11-03T08:52:12.777Z,17.13
2018-11-03T08:54:41.303Z,17.80
2018-11-03T08:57:12.484Z,18.33
2018-11-03T08:59:41.293Z,15.60
2018-11-03T09:02:09.747Z,14.70
2018-11-03T09:04:38.287Z,14.93
2018-11-03T09:07:10.941Z,13.70
2018-11-03T09:09:41.508Z,23.00
2018-11-03T09:12:12.264Z,15.97
2018-11-03T09:14:40.920Z,15.10
2018-11-03T09:17:09.587Z,15.27
2018-11-03T09:19:38.071Z,15.07
2018-11-03T09:22:06.668Z,14.30
2018-11-03T09:24:35.232Z,14.70
2018-11-03T09:27:07.168Z,13.90
2018-11-03T09:29:35.662Z,12.93
2018-11-03T09:32:04.358Z,13.00
2018-11-03T09:34:32.862Z,15.30
2018-11-03T09:37:01.341Z,15.37
2018-11-03T09:39:29.880Z,14.40
2018-11-03T09:42:01.321Z,13.97
2018-11-03T09:44:30.053Z,13.93
2018-11-03T09:46:58.586Z,14.70
2018-11-03T09:49:27.086Z,15.70
2018-11-03T09:51:55.662Z,16.27
2018-11-03T09:54:24.144Z,17.53
2018-11-03T09:56:52.667Z,18.40
2018-11-03T09:59:21.153Z,15.17
2018-11-03T10:01:49.692Z,14.43
2018-11-03T10:04:18.238Z,14.40
2018-11-03T10:06:46.772Z,14.70
2018-11-03T10:09:18.086Z,14.23
2018-11-03T10:11:50.582Z,15.37
2018-11-03T10:14:19.425Z,13.87
2018-11-03T10:16:47.957Z,14.57
2018-11-03T10:19:16.468Z,15.80
2018-11-03T10:21:45.002Z,13.90
2018-11-03T10:24:13.522Z,14.37
2018-11-03T10:26:42.006Z,13.60
2018-11-03T10:29:10.531Z,13.80
2018-11-03T10:31:39.026Z,12.80
2018-11-03T10:34:09.858Z,12.67
2018-11-03T10:36:38.610Z,12.10
2018-11-03T10:39:13.459Z,12.50
2018-11-03T10:41:44.501Z,11.70
2018-11-03T10:44:13.229Z,12.57
2018-11-03T10:46:41.731Z,12.77
2018-11-03T10:49:14.198Z,12.03
2018-11-03T10:51:44.771Z,12.43
2018-11-03T10:54:13.521Z,11.43
2018-11-03T10:56:45.684Z,11.53
2018-11-03T10:59:17.295Z,11.80
2018-11-03T11:01:51.607Z,11.77
2018-11-03T11:04:26.011Z,12.47
2018-11-03T11:07:02.724Z,12.20
2018-11-03T11:09:37.895Z,11.93
2018-11-03T11:12:16.525Z,12.00
2018-11-03T11:14:45.247Z,12.47
2018-11-03T11:17:13.798Z,12.43
2018-11-03T11:19:47.528Z,12.13
2018-11-03T11:22:16.221Z,12.93
2018-11-03T11:24:44.776Z,12.43
2018-11-03T11:27:13.321Z,11.93
2018-11-03T11:29:44.525Z,11.57
2018-11-03T11:32:15.566Z,11.30
2018-11-03T11:34:59.181Z,10.73
2018-11-03T11:37:29.050Z,11.13
2018-11-03T11:39:57.600Z,11.00
2018-11-03T11:42:30.055Z,11.63
2018-11-03T11:45:01.896Z,11.33
2018-11-03T11:47:33.052Z,10.57
2018-11-03T11:50:04.706Z,11.73
2018-11-03T11:52:50.033Z,12.03
2018-11-03T11:55:18.940Z,15.17
2018-11-03T11:57:47.616Z,21.30
2018-11-03T12:00:16.169Z,30.20
2018-11-03T12:02:44.678Z,12.43
2018-11-03T12:05:13.258Z,11.07
2018-11-03T12:07:41.759Z,16.33
2018-11-03T12:10:10.423Z,12.47
2018-11-03T12:12:40.898Z,15.87
2018-11-03T12:15:12.347Z,13.20
2018-11-03T12:17:41.066Z,13.43
2018-11-03T12:20:09.975Z,26.00
2018-11-03T12:22:39.230Z,11.17
2018-11-03T12:25:09.269Z,12.57
2018-11-03T12:27:37.848Z,11.13
2018-11-03T12:30:08.411Z,11.40
2018-11-03T12:32:36.954Z,10.80
2018-11-03T12:35:07.671Z,14.30
2018-11-03T12:37:37.013Z,11.90
2018-11-03T12:40:07.018Z,18.13
2018-11-03T12:42:35.555Z,11.67
2018-11-03T12:45:05.787Z,11.63
2018-11-03T12:47:34.416Z,11.40
2018-11-03T12:50:05.718Z,12.23
2018-11-03T12:52:34.403Z,12.37
2018-11-03T12:55:02.971Z,11.90
2018-11-03T12:57:31.540Z,12.00
2018-11-03T13:00:07.729Z,11.13
2018-11-03T13:02:36.384Z,12.20
2018-11-03T13:05:05.491Z,11.30
2018-11-03T13:07:33.920Z,11.27
2018-11-03T13:10:02.556Z,10.93
2018-11-03T13:12:30.986Z,11.80
2018-11-03T13:14:59.507Z,11.50
2018-11-03T13:17:27.996Z,11.70
2018-11-03T13:19:56.529Z,11.27
2018-11-03T13:22:25.088Z,10.27
2018-11-03T13:25:13.836Z,11.80
2018-11-03T13:27:42.930Z,10.93
2018-11-03T13:30:13.482Z,11.30
2018-11-03T13:32:42.005Z,10.87
2018-11-03T13:35:11.837Z,11.37
2018-11-03T13:37:40.758Z,11.70
2018-11-03T13:40:10.761Z,11.67
2018-11-03T13:42:39.341Z,11.20
2018-11-03T13:45:08.598Z,11.00
2018-11-03T13:47:38.130Z,11.40
2018-11-03T13:50:14.264Z,11.63
2018-11-03T13:52:44.357Z,11.87
2018-11-03T13:55:12.983Z,11.27
2018-11-03T13:57:42.679Z,11.70
2018-11-03T14:00:19.344Z,11.20
2018-11-03T14:03:19.036Z,12.13
2018-11-03T14:05:48.225Z,12.60
2018-11-03T14:08:22.995Z,13.17
2018-11-03T14:10:52.635Z,12.50
2018-11-03T14:13:23.746Z,12.03
2018-11-03T14:15:53.778Z,12.20
2018-11-03T14:18:24.527Z,12.23
2018-11-03T14:20:54.107Z,12.63
2018-11-03T14:23:23.766Z,12.33
2018-11-03T14:25:53.037Z,12.23
2018-11-03T14:28:21.699Z,12.90
2018-11-03T14:30:51.126Z,12.80
2018-11-03T14:33:22.960Z,14.00
2018-11-03T14:35:58.571Z,13.13
2018-11-03T14:38:50.884Z,12.33
2018-11-03T14:41:39.864Z,14.00
2018-11-03T14:44:28.359Z,14.30
2018-11-03T14:46:58.747Z,102.77
2018-11-03T14:50:05.769Z,34.00
2018-11-03T14:52:44.495Z,26.60
2018-11-03T14:55:16.001Z,31.57
2018-11-03T14:57:47.339Z,30.10
2018-11-03T15:00:18.022Z,27.83
2018-11-03T15:02:48.269Z,28.33
2018-11-03T15:05:19.110Z,22.37
2018-11-03T15:07:58.064Z,18.67
2018-11-03T15:11:04.091Z,18.87
2018-11-03T15:13:40.734Z,23.27
2018-11-03T15:16:12.227Z,19.00
2018-11-03T15:18:42.438Z,21.87
2018-11-03T15:21:14.092Z,18.33
2018-11-03T15:23:42.770Z,23.20
2018-11-03T15:26:11.351Z,19.77
2018-11-03T15:28:39.855Z,23.00
2018-11-03T15:31:08.372Z,21.27
2018-11-03T15:33:36.886Z,20.80
2018-11-03T15:36:07.945Z,20.80
2018-11-03T15:38:36.575Z,19.90
2018-11-03T15:41:08.218Z,20.33
2018-11-03T15:43:37.052Z,21.60
2018-11-03T15:46:06.141Z,19.90
2018-11-03T15:48:34.710Z,20.80
2018-11-03T15:51:03.263Z,21.03
2018-11-03T15:53:31.810Z,21.13
2018-11-03T15:56:00.396Z,21.57
2018-11-03T15:58:28.959Z,21.43
2018-11-03T16:00:57.498Z,22.17
2018-11-03T16:03:27.778Z,21.37
2018-11-03T16:06:03.024Z,22.30
2018-11-03T16:08:49.629Z,22.83
2018-11-03T16:11:31.214Z,23.07
2018-11-03T16:14:12.712Z,23.43
2018-11-03T16:16:56.335Z,23.70
2018-11-03T16:19:34.005Z,23.77
2018-11-03T16:22:06.404Z,24.37
2018-11-03T16:24:40.518Z,26.40
2018-11-03T16:27:09.298Z,26.83
2018-11-03T16:29:37.835Z,28.20
2018-11-03T16:32:07.379Z,27.57
2018-11-03T16:34:44.215Z,26.93
2018-11-03T16:37:12.743Z,27.00
2018-11-03T16:39:41.403Z,26.57
2018-11-03T16:42:10.545Z,26.60
2018-11-03T16:44:50.576Z,26.13
2018-11-03T16:47:19.150Z,27.97
2018-11-03T16:49:47.619Z,33.00
2018-11-03T16:52:17.363Z,26.70
2018-11-03T16:54:45.878Z,24.30
2018-11-03T16:57:14.394Z,24.00
2018-11-03T16:59:42.881Z,24.23
2018-11-03T17:02:11.377Z,24.13
2018-11-03T17:04:45.567Z,23.00
2018-11-03T17:07:14.337Z,23.47
2018-11-03T17:09:42.835Z,23.40
2018-11-03T17:12:11.454Z,23.30
2018-11-03T17:14:40.012Z,22.87
2018-11-03T17:17:08.558Z,24.10
2018-11-03T17:19:37.088Z,24.07
2018-11-03T17:22:05.781Z,24.03
2018-11-03T17:24:34.317Z,24.17
2018-11-03T17:27:02.837Z,23.80
2018-11-03T17:29:31.379Z,24.73
2018-11-03T17:31:59.921Z,24.30
2018-11-03T17:34:28.452Z,24.57
2018-11-03T17:36:57.281Z,24.20
2018-11-03T17:39:25.798Z,24.17
2018-11-03T17:41:54.323Z,25.00
2018-11-03T17:44:22.823Z,24.37
2018-11-03T17:46:51.342Z,23.97
2018-11-03T17:49:19.884Z,23.87
2018-11-03T17:51:48.735Z,23.30
2018-11-03T17:54:17.611Z,24.30
2018-11-03T17:56:46.182Z,24.03
2018-11-03T17:59:14.690Z,24.10
2018-11-03T18:01:43.219Z,22.93
2018-11-03T18:04:11.768Z,24.13
2018-11-03T18:06:40.327Z,24.07
2018-11-03T18:09:09.556Z,22.70
2018-11-03T18:11:38.103Z,23.97
2018-11-03T18:14:06.672Z,22.33
2018-11-03T18:16:35.289Z,23.00
2018-11-03T18:19:03.831Z,24.70
2018-11-03T18:21:36.277Z,23.83
2018-11-03T18:24:05.014Z,24.90
2018-11-03T18:26:33.624Z,23.83
2018-11-03T18:29:02.148Z,24.23
2018-11-03T18:31:30.689Z,24.47
2018-11-03T18:33:59.243Z,25.43
2018-11-03T18:36:27.765Z,24.53
2018-11-03T18:38:56.249Z,24.40
2018-11-03T18:41:24.835Z,24.17
2018-11-03T18:43:53.355Z,24.30
2018-11-03T18:46:21.959Z,23.77
2018-11-03T18:48:50.462Z,24.33
2018-11-03T18:51:19.012Z,25.23
2018-11-03T18:53:48.376Z,24.40
2018-11-03T18:56:17.862Z,24.73
2018-11-03T18:58:47.061Z,25.83
2018-11-03T19:01:18.929Z,25.27
2018-11-03T19:03:47.626Z,25.93
2018-11-03T19:06:16.179Z,24.97
2018-11-03T19:08:44.788Z,25.17
2018-11-03T19:11:13.339Z,24.47
2018-11-03T19:13:41.858Z,24.93
2018-11-03T19:16:10.460Z,25.90
2018-11-03T19:18:44.033Z,26.63
2018-11-03T19:21:14.345Z,25.90
2018-11-03T19:23:46.328Z,25.63
2018-11-03T19:26:15.131Z,26.27
2018-11-03T19:28:43.610Z,27.90
2018-11-03T19:31:12.162Z,28.57
2018-11-03T19:33:40.777Z,28.20
2018-11-03T19:36:09.334Z,29.57
2018-11-03T19:38:37.868Z,27.23
2018-11-03T19:41:06.464Z,28.53
2018-11-03T19:43:35.106Z,28.50
2018-11-03T19:46:03.781Z,28.57
2018-11-03T19:48:32.296Z,28.70
2018-11-03T19:51:00.795Z,26.80
2018-11-03T19:53:29.601Z,26.87
2018-11-03T19:55:58.142Z,26.07
2018-11-03T19:58:27.697Z,27.03
2018-11-03T20:00:57.526Z,25.03
2018-11-03T20:03:26.134Z,25.67
2018-11-03T20:05:55.862Z,26.20
2018-11-03T20:08:24.404Z,24.67
2018-11-03T20:10:52.977Z,25.30
2018-11-03T20:13:21.531Z,25.97
2018-11-03T20:15:50.052Z,26.13
2018-11-03T20:18:22.394Z,25.37
2018-11-03T20:20:55.095Z,25.07
2018-11-03T20:23:23.846Z,24.37
2018-11-03T20:25:52.358Z,24.30
2018-11-03T20:28:20.914Z,23.80
2018-11-03T20:30:49.798Z,23.10
2018-11-03T20:33:19.220Z,23.73
2018-11-03T20:35:50.570Z,23.63
2018-11-03T20:38:19.228Z,29.63
2018-11-03T20:40:47.717Z,33.77
2018-11-03T20:43:16.795Z,33.97
2018-11-03T20:45:45.340Z,28.10
2018-11-03T20:48:13.952Z,26.13
2018-11-03T20:50:42.475Z,28.67
2018-11-03T20:53:11.044Z,26.47
2018-11-03T20:55:39.562Z,24.00
2018-11-03T20:58:08.108Z,21.67
2018-11-03T21:00:36.593Z,21.40
2018-11-03T21:03:05.187Z,20.40
2018-11-03T21:05:33.684Z,20.60
2018-11-03T21:08:02.595Z,21.57
2018-11-03T21:10:31.111Z,20.77
2018-11-03T21:12:59.628Z,19.57
2018-11-03T21:15:28.173Z,19.47
2018-11-03T21:17:56.698Z,19.73
2018-11-03T21:20:26.050Z,20.37
2018-11-03T21:22:54.662Z,18.80
2018-11-03T21:25:23.079Z,17.80
2018-11-03T21:27:51.747Z,18.90
2018-11-03T21:30:20.412Z,18.70
2018-11-03T21:32:48.933Z,19.17
2018-11-03T21:35:17.380Z,18.00
2018-11-03T21:37:45.887Z,19.47
2018-11-03T21:40:14.395Z,18.43
2018-11-03T21:42:42.906Z,18.13
2018-11-03T21:45:11.480Z,18.57
2018-11-03T21:47:40.936Z,18.37
2018-11-03T21:50:10.140Z,17.77
2018-11-03T21:52:38.722Z,16.67
2018-11-03T21:55:07.831Z,17.27
2018-11-03T21:57:36.560Z,17.03
2018-11-03T22:00:06.061Z,16.97
2018-11-03T22:02:34.556Z,16.40
2018-11-03T22:05:03.075Z,16.67
2018-11-03T22:07:31.575Z,16.37
2018-11-03T22:10:00.220Z,16.47
2018-11-03T22:12:28.706Z,15.87
2018-11-03T22:14:57.245Z,16.17
2018-11-03T22:17:25.788Z,16.43
2018-11-03T22:19:54.328Z,15.90
2018-11-03T22:22:22.814Z,15.93
2018-11-03T22:24:51.874Z,15.53
2018-11-03T22:27:20.364Z,16.23
2018-11-03T22:29:48.868Z,16.27
2018-11-03T22:32:17.435Z,14.60
2018-11-03T22:34:45.976Z,14.30
2018-11-03T22:37:14.515Z,14.47
2018-11-03T22:39:43.029Z,14.53
2018-11-03T22:42:11.565Z,13.77
2018-11-03T22:44:40.642Z,14.30
2018-11-03T22:47:09.165Z,13.77
2018-11-03T22:49:37.711Z,14.13
2018-11-03T22:52:07.381Z,13.90
2018-11-03T22:54:36.753Z,13.90
2018-11-03T22:57:05.401Z,13.87
2018-11-03T22:59:33.903Z,14.00
2018-11-03T23:02:02.463Z,13.17
2018-11-03T23:04:31.035Z,13.67
2018-11-03T23:06:59.599Z,13.70
2018-11-03T23:09:28.121Z,13.60
2018-11-03T23:11:56.654Z,13.30
2018-11-03T23:14:25.176Z,14.13
2018-11-03T23:16:53.710Z,12.67
2018-11-03T23:19:22.255Z,13.17
2018-11-03T23:21:50.822Z,12.87
2018-11-03T23:24:19.313Z,12.53
2018-11-03T23:26:47.830Z,12.93
2018-11-03T23:29:16.310Z,12.87
2018-11-03T23:31:49.584Z,14.20
2018-11-03T23:34:19.696Z,12.87
2018-11-03T23:36:48.367Z,11.97
2018-11-03T23:39:16.870Z,11.90
2018-11-03T23:41:45.387Z,11.33
2018-11-03T23:44:13.886Z,11.60
2018-11-03T23:46:42.948Z,11.17
2018-11-03T23:49:11.489Z,11.80
2018-11-03T23:51:40.050Z,11.13
2018-11-03T23:54:08.574Z,11.70
2018-11-03T23:56:39.875Z,11.70
2018-11-03T23:59:08.842Z,11.33
